Terminal Aerodrome Forecast
Issued by NWS

Home | Current Version | Previous Version | Text Only | Print | Product List | Glossary On
Versions: 1 2 3 4 5 6 7 8 9 10 11 12 13 14 15 16 17 18
867
FTUS46 KMTR 282334
TAFSNS
TAF
KSNS 282334Z 2900/2924 31015G20KT P6SM FEW200
     FM290200 31008KT P6SM FEW010
      TEMPO 2902/2905 BKN010
     FM290500 31005KT 6SM BR OVC010
     FM291000 VRB03KT P6SM OVC007
     FM291700 27004KT P6SM SCT012
     FM291900 27010KT P6SM SKC=

USA.gov is the U.S. government's official web portal to all federal, state and local government web resources and services.